sensor_id;sensor_type;location;lat;lon;timestamp;pressure;altitude;pressure_sealevel;temperature;humidity
20630;BME280;17386;43.846;25.950;2023-04-25T00:01:17;100479.16;;;16.16;100.00
20630;BME280;17386;43.846;25.950;2023-04-25T00:03:42;100469.50;;;16.13;100.00
20630;BME280;17386;43.846;25.950;2023-04-25T00:06:08;100477.44;;;16.15;100.00
20630;BME280;17386;43.846;25.950;2023-04-25T00:08:33;100469.41;;;16.15;100.00
20630;BME280;17386;43.846;25.950;2023-04-25T00:10:59;100468.53;;;16.14;100.00
20630;BME280;17386;43.846;25.950;2023-04-25T00:13:25;100468.72;;;16.11;100.00
20630;BME280;17386;43.846;25.950;2023-04-25T00:15:51;100460.78;;;16.10;100.00
20630;BME280;17386;43.846;25.950;2023-04-25T00:18:18;100458.31;;;16.07;100.00
20630;BME280;17386;43.846;25.950;2023-04-25T00:20:44;100464.91;;;16.01;100.00
20630;BME280;17386;43.846;25.950;2023-04-25T00:23:16;100484.44;;;16.03;100.00
20630;BME280;17386;43.846;25.950;2023-04-25T00:25:47;100477.44;;;16.01;100.00
20630;BME280;17386;43.846;25.950;2023-04-25T00:28:13;100472.19;;;15.99;100.00
20630;BME280;17386;43.846;25.950;2023-04-25T00:30:39;100476.59;;;16.00;100.00
20630;BME280;17386;43.846;25.950;2023-04-25T00:33:05;100479.16;;;16.02;100.00
20630;BME280;17386;43.846;25.950;2023-04-25T00:35:30;100476.00;;;15.95;100.00
20630;BME280;17386;43.846;25.950;2023-04-25T00:37:56;100470.66;;;15.95;100.00
20630;BME280;17386;43.846;25.950;2023-04-25T00:40:21;100467.97;;;15.95;100.00
20630;BME280;17386;43.846;25.950;2023-04-25T00:42:47;100465.50;;;15.92;100.00
20630;BME280;17386;43.846;25.950;2023-04-25T00:45:14;100454.84;;;15.91;100.00
20630;BME280;17386;43.846;25.950;2023-04-25T00:47:40;100460.22;;;15.91;100.00
20630;BME280;17386;43.846;25.950;2023-04-25T00:50:06;100442.81;;;15.83;100.00
20630;BME280;17386;43.846;25.950;2023-04-25T00:52:32;100440.03;;;15.85;100.00
20630;BME280;17386;43.846;25.950;2023-04-25T00:54:58;100444.50;;;15.84;100.00
20630;BME280;17386;43.846;25.950;2023-04-25T00:57:23;100439.25;;;15.83;100.00
20630;BME280;17386;43.846;25.950;2023-04-25T00:59:50;100440.22;;;15.82;100.00
20630;BME280;17386;43.846;25.950;2023-04-25T01:02:16;100432.09;;;15.83;100.00
20630;BME280;17386;43.846;25.950;2023-04-25T01:04:41;100430.38;;;15.82;100.00
20630;BME280;17386;43.846;25.950;2023-04-25T01:07:07;100430.94;;;15.88;100.00
20630;BME280;17386;43.846;25.950;2023-04-25T01:09:33;100415.75;;;15.88;100.00
20630;BME280;17386;43.846;25.950;2023-04-25T01:11:59;100422.72;;;15.91;100.00
20630;BME280;17386;43.846;25.950;2023-04-25T01:14:25;100409.41;;;15.89;100.00
20630;BME280;17386;43.846;25.950;2023-04-25T01:16:50;100409.13;;;15.94;100.00
20630;BME280;17386;43.846;25.950;2023-04-25T01:19:18;100408.34;;;15.92;100.00
20630;BME280;17386;43.846;25.950;2023-04-25T01:21:44;100405.28;;;15.98;100.00
20630;BME280;17386;43.846;25.950;2023-04-25T01:24:10;100394.69;;;15.96;100.00
20630;BME280;17386;43.846;25.950;2023-04-25T01:26:36;100384.94;;;15.95;100.00
20630;BME280;17386;43.846;25.950;2023-04-25T01:29:04;100387.81;;;15.92;100.00
20630;BME280;17386;43.846;25.950;2023-04-25T01:31:29;100381.66;;;15.90;100.00
20630;BME280;17386;43.846;25.950;2023-04-25T01:33:55;100378.53;;;15.83;100.00
20630;BME280;17386;43.846;25.950;2023-04-25T01:36:21;100371.06;;;15.89;100.00
20630;BME280;17386;43.846;25.950;2023-04-25T01:38:47;100366.38;;;15.92;100.00
20630;BME280;17386;43.846;25.950;2023-04-25T01:41:13;100364.25;;;15.97;100.00
20630;BME280;17386;43.846;25.950;2023-04-25T01:43:39;100365.03;;;15.99;100.00
20630;BME280;17386;43.846;25.950;2023-04-25T01:46:05;100348.06;;;15.99;100.00
20630;BME280;17386;43.846;25.950;2023-04-25T01:48:30;100354.78;;;16.06;100.00
20630;BME280;17386;43.846;25.950;2023-04-25T01:50:55;100342.31;;;16.05;100.00
20630;BME280;17386;43.846;25.950;2023-04-25T01:53:21;100343.28;;;16.04;100.00
20630;BME280;17386;43.846;25.950;2023-04-25T01:55:47;100349.31;;;16.07;100.00
20630;BME280;17386;43.846;25.950;2023-04-25T01:58:13;100347.59;;;16.06;100.00
20630;BME280;17386;43.846;25.950;2023-04-25T02:00:38;100346.81;;;16.04;100.00
20630;BME280;17386;43.846;25.950;2023-04-25T02:03:06;100340.81;;;16.01;100.00
20630;BME280;17386;43.846;25.950;2023-04-25T02:05:35;100339.16;;;15.98;100.00
20630;BME280;17386;43.846;25.950;2023-04-25T02:08:02;100339.97;;;16.00;100.00
20630;BME280;17386;43.846;25.950;2023-04-25T02:10:28;100334.50;;;16.02;100.00
20630;BME280;17386;43.846;25.950;2023-04-25T02:12:53;100334.19;;;16.06;100.00
20630;BME280;17386;43.846;25.950;2023-04-25T02:15:19;100336.88;;;16.06;100.00
20630;BME280;17386;43.846;25.950;2023-04-25T02:17:44;100332.47;;;16.05;100.00
20630;BME280;17386;43.846;25.950;2023-04-25T02:20:10;100328.84;;;16.06;100.00
20630;BME280;17386;43.846;25.950;2023-04-25T02:22:36;100329.59;;;16.08;100.00
20630;BME280;17386;43.846;25.950;2023-04-25T02:25:02;100324.88;;;16.12;100.00
20630;BME280;17386;43.846;25.950;2023-04-25T02:27:30;100327.66;;;16.10;100.00
20630;BME280;17386;43.846;25.950;2023-04-25T02:29:56;100326.69;;;16.11;100.00
20630;BME280;17386;43.846;25.950;2023-04-25T02:32:21;100335.91;;;16.07;100.00
20630;BME280;17386;43.846;25.950;2023-04-25T02:34:46;100331.91;;;16.00;100.00
20630;BME280;17386;43.846;25.950;2023-04-25T02:37:13;100333.63;;;16.01;100.00
20630;BME280;17386;43.846;25.950;2023-04-25T02:39:38;100326.34;;;16.03;100.00
20630;BME280;17386;43.846;25.950;2023-04-25T02:42:04;100327.22;;;16.04;100.00
20630;BME280;17386;43.846;25.950;2023-04-25T02:44:29;100320.03;;;16.04;100.00
20630;BME280;17386;43.846;25.950;2023-04-25T02:46:55;100319.94;;;16.06;100.00
20630;BME280;17386;43.846;25.950;2023-04-25T02:49:20;100319.16;;;16.04;100.00
20630;BME280;17386;43.846;25.950;2023-04-25T02:51:45;100320.25;;;16.01;100.00
20630;BME280;17386;43.846;25.950;2023-04-25T02:54:11;100315.84;;;16.00;100.00
20630;BME280;17386;43.846;25.950;2023-04-25T02:56:36;100312.31;;;16.00;100.00
20630;BME280;17386;43.846;25.950;2023-04-25T02:59:02;100315.84;;;16.00;100.00
20630;BME280;17386;43.846;25.950;2023-04-25T03:01:27;100311.53;;;15.98;100.00
20630;BME280;17386;43.846;25.950;2023-04-25T03:03:52;100312.38;;;15.98;100.00
20630;BME280;17386;43.846;25.950;2023-04-25T03:06:18;100305.31;;;15.97;100.00
20630;BME280;17386;43.846;25.950;2023-04-25T03:08:43;100316.25;;;15.94;100.00
20630;BME280;17386;43.846;25.950;2023-04-25T03:11:09;100312.03;;;15.90;100.00
20630;BME280;17386;43.846;25.950;2023-04-25T03:13:34;100322.84;;;15.89;100.00
20630;BME280;17386;43.846;25.950;2023-04-25T03:16:00;100315.03;;;15.85;100.00
20630;BME280;17386;43.846;25.950;2023-04-25T03:18:26;100317.59;;;15.87;100.00
20630;BME280;17386;43.846;25.950;2023-04-25T03:20:51;100309.75;;;15.84;100.00
20630;BME280;17386;43.846;25.950;2023-04-25T03:23:17;100314.25;;;15.83;100.00
20630;BME280;17386;43.846;25.950;2023-04-25T03:25:42;100315.09;;;15.84;100.00
20630;BME280;17386;43.846;25.950;2023-04-25T03:28:08;100318.72;;;15.83;100.00
20630;BME280;17386;43.846;25.950;2023-04-25T03:30:33;100314.13;;;15.85;100.00
20630;BME280;17386;43.846;25.950;2023-04-25T03:32:58;100320.78;;;15.79;100.00
20630;BME280;17386;43.846;25.950;2023-04-25T03:35:24;100334.06;;;15.81;100.00
20630;BME280;17386;43.846;25.950;2023-04-25T03:37:50;100339.50;;;15.79;100.00
20630;BME280;17386;43.846;25.950;2023-04-25T03:40:15;100341.88;;;15.55;100.00
20630;BME280;17386;43.846;25.950;2023-04-25T03:42:41;100341.22;;;15.52;100.00
20630;BME280;17386;43.846;25.950;2023-04-25T03:45:07;100338.22;;;15.56;100.00
20630;BME280;17386;43.846;25.950;2023-04-25T03:47:32;100335.22;;;15.63;100.00
20630;BME280;17386;43.846;25.950;2023-04-25T03:49:58;100334.94;;;15.67;100.00
20630;BME280;17386;43.846;25.950;2023-04-25T03:52:25;100338.84;;;15.76;100.00
20630;BME280;17386;43.846;25.950;2023-04-25T03:54:51;100330.78;;;15.76;100.00
20630;BME280;17386;43.846;25.950;2023-04-25T03:57:16;100338.56;;;15.80;100.00
20630;BME280;17386;43.846;25.950;2023-04-25T03:59:42;100335.00;;;15.80;100.00
20630;BME280;17386;43.846;25.950;2023-04-25T04:02:07;100345.53;;;15.83;100.00
20630;BME280;17386;43.846;25.950;2023-04-25T04:04:32;100346.47;;;15.82;100.00
20630;BME280;17386;43.846;25.950;2023-04-25T04:06:58;100353.66;;;15.81;100.00
20630;BME280;17386;43.846;25.950;2023-04-25T04:09:23;100359.22;;;15.78;100.00
20630;BME280;17386;43.846;25.950;2023-04-25T04:11:49;100361.81;;;15.80;100.00
20630;BME280;17386;43.846;25.950;2023-04-25T04:14:14;100350.13;;;15.67;100.00
20630;BME280;17386;43.846;25.950;2023-04-25T04:16:40;100347.22;;;15.55;100.00
20630;BME280;17386;43.846;25.950;2023-04-25T04:19:05;100346.19;;;15.58;100.00
20630;BME280;17386;43.846;25.950;2023-04-25T04:21:30;100343.25;;;15.63;100.00
20630;BME280;17386;43.846;25.950;2023-04-25T04:23:57;100347.75;;;15.62;100.00
20630;BME280;17386;43.846;25.950;2023-04-25T04:26:23;100340.91;;;15.56;100.00
20630;BME280;17386;43.846;25.950;2023-04-25T04:28:51;100342.63;;;15.57;100.00
20630;BME280;17386;43.846;25.950;2023-04-25T04:31:17;100345.41;;;15.56;100.00
20630;BME280;17386;43.846;25.950;2023-04-25T04:33:44;100350.88;;;15.54;100.00
20630;BME280;17386;43.846;25.950;2023-04-25T04:36:10;100356.50;;;15.50;100.00
20630;BME280;17386;43.846;25.950;2023-04-25T04:38:35;100346.47;;;15.39;100.00
20630;BME280;17386;43.846;25.950;2023-04-25T04:41:01;100340.25;;;15.39;100.00
20630;BME280;17386;43.846;25.950;2023-04-25T04:43:27;100346.84;;;15.47;100.00
20630;BME280;17386;43.846;25.950;2023-04-25T04:45:53;100341.28;;;15.50;100.00
20630;BME280;17386;43.846;25.950;2023-04-25T04:48:21;100339.31;;;15.54;100.00
20630;BME280;17386;43.846;25.950;2023-04-25T04:50:46;100347.34;;;15.54;100.00
20630;BME280;17386;43.846;25.950;2023-04-25T04:53:12;100342.84;;;15.54;100.00
20630;BME280;17386;43.846;25.950;2023-04-25T04:55:37;100344.38;;;15.44;100.00
20630;BME280;17386;43.846;25.950;2023-04-25T04:58:03;100347.97;;;15.29;100.00
20630;BME280;17386;43.846;25.950;2023-04-25T05:00:28;100346.25;;;15.28;100.00
20630;BME280;17386;43.846;25.950;2023-04-25T05:02:55;100341.00;;;15.26;100.00
20630;BME280;17386;43.846;25.950;2023-04-25T05:05:20;100347.41;;;15.24;100.00
20630;BME280;17386;43.846;25.950;2023-04-25T05:07:46;100345.59;;;15.24;100.00
20630;BME280;17386;43.846;25.950;2023-04-25T05:10:11;100335.75;;;15.11;100.00
20630;BME280;17386;43.846;25.950;2023-04-25T05:12:36;100344.53;;;15.13;100.00
20630;BME280;17386;43.846;25.950;2023-04-25T05:15:02;100345.50;;;15.12;100.00
20630;BME280;17386;43.846;25.950;2023-04-25T05:17:27;100349.88;;;15.13;100.00
20630;BME280;17386;43.846;25.950;2023-04-25T05:19:53;100342.59;;;15.15;100.00
20630;BME280;17386;43.846;25.950;2023-04-25T05:22:18;100346.84;;;15.19;100.00
20630;BME280;17386;43.846;25.950;2023-04-25T05:24:43;100345.88;;;15.20;100.00
20630;BME280;17386;43.846;25.950;2023-04-25T05:27:09;100342.50;;;15.16;100.00
20630;BME280;17386;43.846;25.950;2023-04-25T05:29:34;100352.28;;;15.17;100.00
20630;BME280;17386;43.846;25.950;2023-04-25T05:32:00;100345.97;;;15.18;100.00
20630;BME280;17386;43.846;25.950;2023-04-25T05:34:26;100346.72;;;15.06;100.00
20630;BME280;17386;43.846;25.950;2023-04-25T05:36:51;100353.69;;;15.09;100.00
20630;BME280;17386;43.846;25.950;2023-04-25T05:39:16;100344.91;;;15.07;100.00
20630;BME280;17386;43.846;25.950;2023-04-25T05:41:42;100350.25;;;15.07;100.00
20630;BME280;17386;43.846;25.950;2023-04-25T05:44:08;100346.41;;;14.96;100.00
20630;BME280;17386;43.846;25.950;2023-04-25T05:46:33;100334.38;;;14.89;100.00
20630;BME280;17386;43.846;25.950;2023-04-25T05:48:59;100344.19;;;14.89;100.00
20630;BME280;17386;43.846;25.950;2023-04-25T05:51:24;100350.69;;;14.85;100.00
20630;BME280;17386;43.846;25.950;2023-04-25T05:53:51;100343.69;;;14.82;100.00
20630;BME280;17386;43.846;25.950;2023-04-25T05:56:16;100342.16;;;14.78;100.00
20630;BME280;17386;43.846;25.950;2023-04-25T05:58:42;100337.88;;;14.75;100.00
20630;BME280;17386;43.846;25.950;2023-04-25T06:01:07;100336.91;;;14.76;100.00
20630;BME280;17386;43.846;25.950;2023-04-25T06:03:34;100342.91;;;14.80;100.00
20630;BME280;17386;43.846;25.950;2023-04-25T06:05:59;100343.22;;;14.75;100.00
20630;BME280;17386;43.846;25.950;2023-04-25T06:08:24;100348.72;;;14.72;100.00
20630;BME280;17386;43.846;25.950;2023-04-25T06:10:50;100350.03;;;14.65;100.00
20630;BME280;17386;43.846;25.950;2023-04-25T06:13:15;100357.97;;;14.67;100.00
20630;BME280;17386;43.846;25.950;2023-04-25T06:15:41;100346.25;;;14.69;100.00
20630;BME280;17386;43.846;25.950;2023-04-25T06:18:06;100342.97;;;14.64;100.00
20630;BME280;17386;43.846;25.950;2023-04-25T06:20:32;100341.16;;;14.65;100.00
20630;BME280;17386;43.846;25.950;2023-04-25T06:22:57;100342.88;;;14.66;100.00
20630;BME280;17386;43.846;25.950;2023-04-25T06:25:22;100348.22;;;14.66;100.00
20630;BME280;17386;43.846;25.950;2023-04-25T06:27:48;100348.06;;;14.69;100.00
20630;BME280;17386;43.846;25.950;2023-04-25T06:30:13;100342.53;;;14.72;100.00
20630;BME280;17386;43.846;25.950;2023-04-25T06:32:39;100338.47;;;14.65;100.00
20630;BME280;17386;43.846;25.950;2023-04-25T06:35:05;100334.00;;;14.65;100.00
20630;BME280;17386;43.846;25.950;2023-04-25T06:37:30;100333.91;;;14.67;100.00
20630;BME280;17386;43.846;25.950;2023-04-25T06:39:56;100338.13;;;14.71;100.00
20630;BME280;17386;43.846;25.950;2023-04-25T06:42:21;100327.34;;;14.72;100.00
20630;BME280;17386;43.846;25.950;2023-04-25T06:44:47;100327.25;;;14.74;100.00
20630;BME280;17386;43.846;25.950;2023-04-25T06:47:12;100325.34;;;14.76;100.00
20630;BME280;17386;43.846;25.950;2023-04-25T06:49:38;100326.47;;;14.72;100.00
20630;BME280;17386;43.846;25.950;2023-04-25T06:52:03;100318.47;;;14.72;100.00
20630;BME280;17386;43.846;25.950;2023-04-25T06:54:28;100326.47;;;14.72;100.00
20630;BME280;17386;43.846;25.950;2023-04-25T06:56:55;100321.53;;;14.80;100.00
20630;BME280;17386;43.846;25.950;2023-04-25T06:59:21;100334.44;;;14.88;100.00
20630;BME280;17386;43.846;25.950;2023-04-25T07:01:46;100329.41;;;14.97;100.00
20630;BME280;17386;43.846;25.950;2023-04-25T07:04:12;100329.97;;;15.02;100.00
20630;BME280;17386;43.846;25.950;2023-04-25T07:06:37;100337.47;;;15.12;100.00
20630;BME280;17386;43.846;25.950;2023-04-25T07:09:10;100332.69;;;15.17;100.00
20630;BME280;17386;43.846;25.950;2023-04-25T07:11:36;100332.41;;;15.21;100.00
20630;BME280;17386;43.846;25.950;2023-04-25T07:14:02;100340.31;;;15.23;100.00
20630;BME280;17386;43.846;25.950;2023-04-25T07:16:28;100341.97;;;15.25;100.00
20630;BME280;17386;43.846;25.950;2023-04-25T07:18:54;100340.06;;;15.27;100.00
20630;BME280;17386;43.846;25.950;2023-04-25T07:21:19;100339.94;;;15.29;100.00
20630;BME280;17386;43.846;25.950;2023-04-25T07:23:45;100343.47;;;15.29;100.00
20630;BME280;17386;43.846;25.950;2023-04-25T07:26:10;100347.81;;;15.32;100.00
20630;BME280;17386;43.846;25.950;2023-04-25T07:28:36;100337.84;;;15.34;100.00
20630;BME280;17386;43.846;25.950;2023-04-25T07:31:01;100332.31;;;15.37;100.00
20630;BME280;17386;43.846;25.950;2023-04-25T07:33:27;100337.47;;;15.40;100.00
20630;BME280;17386;43.846;25.950;2023-04-25T07:35:53;100332.03;;;15.42;100.00
20630;BME280;17386;43.846;25.950;2023-04-25T07:38:18;100332.13;;;15.40;100.00
20630;BME280;17386;43.846;25.950;2023-04-25T07:40:43;100337.22;;;15.45;100.00
20630;BME280;17386;43.846;25.950;2023-04-25T07:43:09;100337.75;;;15.50;100.00
20630;BME280;17386;43.846;25.950;2023-04-25T07:45:37;100338.53;;;15.52;100.00
20630;BME280;17386;43.846;25.950;2023-04-25T07:48:02;100334.59;;;15.57;100.00
20630;BME280;17386;43.846;25.950;2023-04-25T07:50:28;100337.88;;;15.63;100.00
20630;BME280;17386;43.846;25.950;2023-04-25T07:52:53;100327.19;;;15.63;100.00
20630;BME280;17386;43.846;25.950;2023-04-25T07:55:19;100330.81;;;15.62;100.00
20630;BME280;17386;43.846;25.950;2023-04-25T07:57:45;100328.72;;;15.67;100.00
20630;BME280;17386;43.846;25.950;2023-04-25T08:00:10;100331.09;;;15.71;100.00
20630;BME280;17386;43.846;25.950;2023-04-25T08:02:37;100329.28;;;15.72;100.00
20630;BME280;17386;43.846;25.950;2023-04-25T08:05:02;100332.91;;;15.71;100.00
20630;BME280;17386;43.846;25.950;2023-04-25T08:07:28;100325.66;;;15.73;100.00
20630;BME280;17386;43.846;25.950;2023-04-25T08:09:54;100322.47;;;15.80;100.00
20630;BME280;17386;43.846;25.950;2023-04-25T08:12:19;100335.00;;;15.94;100.00
20630;BME280;17386;43.846;25.950;2023-04-25T08:14:45;100327.03;;;16.07;100.00
20630;BME280;17386;43.846;25.950;2023-04-25T08:17:10;100332.63;;;16.17;100.00
20630;BME280;17386;43.846;25.950;2023-04-25T08:19:36;100334.16;;;16.21;100.00
20630;BME280;17386;43.846;25.950;2023-04-25T08:22:01;100342.16;;;16.35;100.00
20630;BME280;17386;43.846;25.950;2023-04-25T08:24:27;100355.63;;;16.48;100.00
20630;BME280;17386;43.846;25.950;2023-04-25T08:26:52;100333.19;;;16.49;100.00
20630;BME280;17386;43.846;25.950;2023-04-25T08:29:19;100349.00;;;16.66;100.00
20630;BME280;17386;43.846;25.950;2023-04-25T08:31:44;100349.72;;;16.70;100.00
20630;BME280;17386;43.846;25.950;2023-04-25T08:34:10;100359.16;;;16.75;100.00
20630;BME280;17386;43.846;25.950;2023-04-25T08:36:36;100360.31;;;16.71;100.00
20630;BME280;17386;43.846;25.950;2023-04-25T08:39:02;100353.13;;;16.72;100.00
20630;BME280;17386;43.846;25.950;2023-04-25T08:41:27;100349.63;;;16.57;100.00
20630;BME280;17386;43.846;25.950;2023-04-25T08:43:53;100363.56;;;16.49;100.00
20630;BME280;17386;43.846;25.950;2023-04-25T08:46:21;100356.88;;;16.42;100.00
20630;BME280;17386;43.846;25.950;2023-04-25T08:48:48;100354.66;;;16.49;100.00
20630;BME280;17386;43.846;25.950;2023-04-25T08:51:23;100354.13;;;16.56;100.00
20630;BME280;17386;43.846;25.950;2023-04-25T08:53:53;100341.94;;;16.65;100.00
20630;BME280;17386;43.846;25.950;2023-04-25T08:56:19;100342.88;;;16.64;100.00
20630;BME280;17386;43.846;25.950;2023-04-25T08:58:50;100336.44;;;16.66;100.00
20630;BME280;17386;43.846;25.950;2023-04-25T09:01:16;100338.09;;;16.69;100.00
20630;BME280;17386;43.846;25.950;2023-04-25T09:03:44;100338.66;;;16.74;100.00
20630;BME280;17386;43.846;25.950;2023-04-25T09:06:11;100335.47;;;16.82;100.00
20630;BME280;17386;43.846;25.950;2023-04-25T09:08:37;100336.13;;;16.98;100.00
20630;BME280;17386;43.846;25.950;2023-04-25T09:11:02;100334.00;;;17.16;100.00
20630;BME280;17386;43.846;25.950;2023-04-25T09:13:28;100334.66;;;17.32;100.00
20630;BME280;17386;43.846;25.950;2023-04-25T09:15:56;100331.19;;;17.43;100.00
20630;BME280;17386;43.846;25.950;2023-04-25T09:18:30;100318.44;;;17.46;100.00
20630;BME280;17386;43.846;25.950;2023-04-25T09:23:39;100331.41;;;17.65;100.00
20630;BME280;17386;43.846;25.950;2023-04-25T09:26:06;100336.44;;;17.70;100.00
20630;BME280;17386;43.846;25.950;2023-04-25T09:28:31;100338.81;;;17.62;100.00
20630;BME280;17386;43.846;25.950;2023-04-25T09:30:57;100337.22;;;17.85;100.00
20630;BME280;17386;43.846;25.950;2023-04-25T09:33:36;100334.72;;;18.18;100.00
20630;BME280;17386;43.846;25.950;2023-04-25T09:36:06;100311.78;;;18.49;100.00
20630;BME280;17386;43.846;25.950;2023-04-25T09:38:40;100328.06;;;18.72;100.00
20630;BME280;17386;43.846;25.950;2023-04-25T09:41:07;100321.28;;;18.90;100.00
20630;BME280;17386;43.846;25.950;2023-04-25T09:43:33;100322.66;;;18.72;100.00
20630;BME280;17386;43.846;25.950;2023-04-25T09:45:58;100323.69;;;18.82;100.00
20630;BME280;17386;43.846;25.950;2023-04-25T09:48:26;100325.63;;;18.80;100.00
20630;BME280;17386;43.846;25.950;2023-04-25T09:51:12;100327.50;;;18.91;100.00
20630;BME280;17386;43.846;25.950;2023-04-25T09:53:42;100329.34;;;18.90;100.00
20630;BME280;17386;43.846;25.950;2023-04-25T09:56:10;100328.28;;;19.04;100.00
20630;BME280;17386;43.846;25.950;2023-04-25T09:58:38;100330.25;;;19.02;100.00
20630;BME280;17386;43.846;25.950;2023-04-25T10:01:06;100327.03;;;18.97;100.00
20630;BME280;17386;43.846;25.950;2023-04-25T10:03:34;100327.16;;;18.95;100.00
20630;BME280;17386;43.846;25.950;2023-04-25T10:06:04;100325.25;;;19.08;100.00
20630;BME280;17386;43.846;25.950;2023-04-25T10:08:36;100317.81;;;19.23;100.00
20630;BME280;17386;43.846;25.950;2023-04-25T10:11:04;100318.66;;;19.46;93.37
20630;BME280;17386;43.846;25.950;2023-04-25T10:13:31;100316.75;;;19.71;92.53
20630;BME280;17386;43.846;25.950;2023-04-25T10:15:58;100324.34;;;20.31;91.39
20630;BME280;17386;43.846;25.950;2023-04-25T10:18:25;100328.72;;;20.87;83.10
20630;BME280;17386;43.846;25.950;2023-04-25T10:20:51;100327.88;;;21.58;81.27
20630;BME280;17386;43.846;25.950;2023-04-25T10:23:17;100314.88;;;22.23;75.35
20630;BME280;17386;43.846;25.950;2023-04-25T10:25:43;100308.94;;;22.58;72.20
20630;BME280;17386;43.846;25.950;2023-04-25T10:28:09;100311.94;;;22.46;68.12
20630;BME280;17386;43.846;25.950;2023-04-25T10:30:35;100303.09;;;22.92;67.42
20630;BME280;17386;43.846;25.950;2023-04-25T10:33:00;100299.81;;;22.59;68.25
20630;BME280;17386;43.846;25.950;2023-04-25T10:38:03;100298.94;;;22.30;69.19
20630;BME280;17386;43.846;25.950;2023-04-25T10:40:33;100297.44;;;21.56;72.03
20630;BME280;17386;43.846;25.950;2023-04-25T10:43:33;100296.53;;;21.46;75.06
20630;BME280;17386;43.846;25.950;2023-04-25T10:46:02;100293.41;;;20.99;75.21
20630;BME280;17386;43.846;25.950;2023-04-25T10:48:30;100292.63;;;20.88;77.63
20630;BME280;17386;43.846;25.950;2023-04-25T10:51:09;100290.50;;;20.70;78.25
20630;BME280;17386;43.846;25.950;2023-04-25T10:53:35;100291.88;;;20.65;79.05
20630;BME280;17386;43.846;25.950;2023-04-25T10:56:09;100292.16;;;20.62;80.30
20630;BME280;17386;43.846;25.950;2023-04-25T10:58:35;100287.13;;;20.57;81.57
20630;BME280;17386;43.846;25.950;2023-04-25T11:01:01;100287.63;;;20.51;81.25
20630;BME280;17386;43.846;25.950;2023-04-25T11:03:26;100280.94;;;20.45;81.56
20630;BME280;17386;43.846;25.950;2023-04-25T11:05:53;100277.34;;;20.45;81.17
20630;BME280;17386;43.846;25.950;2023-04-25T11:08:37;100277.97;;;20.37;80.78
20630;BME280;17386;43.846;25.950;2023-04-25T11:11:09;100276.53;;;20.33;80.67
20630;BME280;17386;43.846;25.950;2023-04-25T11:13:34;100267.25;;;20.26;82.34
20630;BME280;17386;43.846;25.950;2023-04-25T11:16:00;100265.63;;;19.91;82.17
20630;BME280;17386;43.846;25.950;2023-04-25T11:18:26;100263.34;;;19.64;82.24
20630;BME280;17386;43.846;25.950;2023-04-25T11:20:52;100269.81;;;19.51;83.25
20630;BME280;17386;43.846;25.950;2023-04-25T11:23:17;100269.09;;;19.60;84.64
20630;BME280;17386;43.846;25.950;2023-04-25T11:25:43;100266.88;;;19.54;83.57
20630;BME280;17386;43.846;25.950;2023-04-25T11:28:09;100265.28;;;19.40;83.76
20630;BME280;17386;43.846;25.950;2023-04-25T11:30:35;100267.13;;;19.39;84.47
20630;BME280;17386;43.846;25.950;2023-04-25T11:33:00;100271.28;;;19.44;84.94
20630;BME280;17386;43.846;25.950;2023-04-25T11:35:27;100268.34;;;19.47;84.36
20630;BME280;17386;43.846;25.950;2023-04-25T11:37:53;100268.09;;;19.38;85.19
20630;BME280;17386;43.846;25.950;2023-04-25T11:40:18;100264.31;;;19.30;86.48
20630;BME280;17386;43.846;25.950;2023-04-25T11:42:45;100266.50;;;19.02;90.25
20630;BME280;17386;43.846;25.950;2023-04-25T11:45:11;100261.22;;;18.90;93.98
20630;BME280;17386;43.846;25.950;2023-04-25T11:47:37;100268.69;;;18.62;97.60
20630;BME280;17386;43.846;25.950;2023-04-25T11:50:04;100269.28;;;18.30;100.00
20630;BME280;17386;43.846;25.950;2023-04-25T11:52:37;100258.44;;;18.08;100.00
20630;BME280;17386;43.846;25.950;2023-04-25T11:55:19;100256.31;;;18.00;100.00
20630;BME280;17386;43.846;25.950;2023-04-25T11:57:47;100259.75;;;17.66;100.00
20630;BME280;17386;43.846;25.950;2023-04-25T12:00:19;100262.06;;;17.34;100.00
20630;BME280;17386;43.846;25.950;2023-04-25T12:02:47;100263.25;;;17.30;100.00
20630;BME280;17386;43.846;25.950;2023-04-25T12:05:14;100243.50;;;17.31;100.00
20630;BME280;17386;43.846;25.950;2023-04-25T12:07:41;100238.53;;;17.37;100.00
20630;BME280;17386;43.846;25.950;2023-04-25T12:10:09;100248.50;;;17.48;100.00
20630;BME280;17386;43.846;25.950;2023-04-25T12:12:36;100243.22;;;17.46;100.00
20630;BME280;17386;43.846;25.950;2023-04-25T12:15:15;100233.09;;;17.63;100.00
20630;BME280;17386;43.846;25.950;2023-04-25T12:17:45;100237.91;;;17.70;100.00
20630;BME280;17386;43.846;25.950;2023-04-25T12:20:20;100233.63;;;17.68;100.00
20630;BME280;17386;43.846;25.950;2023-04-25T12:22:47;100228.06;;;17.71;100.00
20630;BME280;17386;43.846;25.950;2023-04-25T12:25:36;100222.75;;;17.69;100.00
20630;BME280;17386;43.846;25.950;2023-04-25T12:28:20;100214.69;;;17.82;100.00
20630;BME280;17386;43.846;25.950;2023-04-25T12:31:18;100209.94;;;18.10;100.00
20630;BME280;17386;43.846;25.950;2023-04-25T12:33:43;100207.19;;;18.22;100.00